עמוד ראשי
METAR-TAF:

METAR-TAF

שדות תעופה :

מרקש, מרוקו

קו רוחב: 31-37N, קו אורך: 008-02W, גובה: 468מטר

תצפית מזג אוויר נוכחית

הדו"ח נערך לפני 25דקות, בשעה 11:00 UTC
רוח 5קשר עם כיוונים משתנים
טמפרטורת 26 צלסיוס
לחות 58%
לחץ 1012 hPa
ראות: 8000מטר

METAR: GMMX 251100Z VRB05KT 8000 NSC 26/17 Q1012 NOSIG

זמן: 12:25 (11:25 UTC)

תחזית

הדו"ח נערך לפני 6 שעות ו 25דקות, בשעה 05:00 UTC
תחזית בתוקף מ 25 ב 06 UTC עד 26 ב 12 UTC
רוח 6קשר מכיוון מערב
ראות: 8000מטר
הסתברות 30% :
זמנית מ -
25 ב 06 UTC עד 25 ב 10 UTC
ראות: 4000מטר
עננים פזורים בגובה 1000רגל
אד
זמנית מ -
25 ב 16 UTC עד 25 ב 21 UTC
רוח 16קשר מכיוון צפון/צפון-מערב
יעשה מ
26 ב 02 UTC עד 26 ב 06 UTC
עננים פזורים בגובה 1300רגל
עננים פזורים בגובה 2300רגל

TAF: GMMX 250500Z 2506/2612 26006KT 8000 NSC PROB30 TEMPO 2506/2510 4000 BR SCT010 TEMPO 2516/2521 34016KT BECMG 2602/2606 SCT013 SCT023

תצפיות ותחזיות מזג אוויר לגבי יותר מ- 4,000 שדות תעופה ברחבי העולם. דוחות METAR ו- TAF.

התחנות הזמינות מסומנות בנקודות צהובות ואדומות על גבי המפה.

העבר את העכבר לנקודה הצבעונית על מנת לראות את שם התחנה.

לאחר מכן, לחץ כדי לראות את תוכן ואת תחזיות מזג האוויר.

כדי לשנות את המפה: לחץ על הכפתורים הירוקים עם הפלוס השחור כדי להתקרב; על הכפתור הירוק עם המקף כדי להתרחק; או בחיצים הירוקים למפות סמוכות.


METAR-TAF: